createdAt,value
2018-01-20T00:01:25.272Z,22.65
2018-01-20T00:03:52.840Z,24.10
2018-01-20T00:06:21.195Z,24.30
2018-01-20T00:08:49.448Z,24.87
2018-01-20T00:11:29.800Z,25.00
2018-01-20T00:13:58.054Z,23.80
2018-01-20T00:16:25.608Z,23.33
2018-01-20T00:18:53.959Z,22.67
2018-01-20T00:21:22.416Z,21.40
2018-01-20T00:23:49.902Z,23.70
2018-01-20T00:26:23.431Z,23.10
2018-01-20T00:28:50.939Z,23.87
2018-01-20T00:31:18.428Z,22.87
2018-01-20T00:33:45.985Z,23.20
2018-01-20T00:36:14.228Z,24.00
2018-01-20T00:38:41.796Z,23.60
2018-01-20T00:41:10.357Z,23.08
2018-01-20T00:43:37.899Z,23.83
2018-01-20T00:46:05.353Z,23.87
2018-01-20T00:48:33.647Z,22.17
2018-01-20T00:51:01.144Z,21.27
2018-01-20T00:53:29.374Z,21.00
2018-01-20T00:55:56.993Z,21.35
2018-01-20T00:58:24.480Z,22.00
2018-01-20T01:00:52.108Z,20.88
2018-01-20T01:03:19.688Z,19.83
2018-01-20T01:05:47.915Z,20.30
2018-01-20T01:08:15.384Z,19.85
2018-01-20T01:10:43.615Z,19.45
2018-01-20T01:13:11.092Z,19.77
2018-01-20T01:15:39.324Z,19.55
2018-01-20T01:18:06.788Z,19.83
2018-01-20T01:20:35.053Z,19.52
2018-01-20T01:23:03.271Z,20.10
2018-01-20T01:25:30.804Z,21.27
2018-01-20T01:27:59.060Z,19.92
2018-01-20T01:30:27.288Z,22.17
2018-01-20T01:32:54.760Z,21.90
2018-01-20T01:35:22.279Z,21.62
2018-01-20T01:37:50.543Z,22.20
2018-01-20T01:40:18.776Z,20.83
2018-01-20T01:42:46.243Z,21.40
2018-01-20T01:45:14.481Z,21.98
2018-01-20T01:47:42.048Z,20.90
2018-01-20T01:50:10.307Z,22.20
2018-01-20T01:52:38.605Z,20.58
2018-01-20T01:55:06.065Z,19.12
2018-01-20T01:57:33.527Z,20.27
2018-01-20T02:00:01.042Z,19.40
2018-01-20T02:02:28.535Z,18.90
2018-01-20T02:04:56.015Z,20.10
2018-01-20T02:07:23.581Z,17.90
2018-01-20T02:09:51.851Z,18.05
2018-01-20T02:12:20.100Z,17.52
2018-01-20T02:14:48.372Z,16.70
2018-01-20T02:17:16.608Z,18.30
2018-01-20T02:19:44.173Z,17.45
2018-01-20T02:22:12.413Z,17.08
2018-01-20T02:24:40.661Z,18.58
2018-01-20T02:27:08.136Z,16.98
2018-01-20T02:29:36.373Z,17.00
2018-01-20T02:32:03.872Z,16.75
2018-01-20T02:34:31.377Z,17.30
2018-01-20T02:36:59.649Z,15.90
2018-01-20T02:39:27.906Z,17.12
2018-01-20T02:41:55.410Z,15.38
2018-01-20T02:44:22.875Z,15.95
2018-01-20T02:46:50.339Z,18.02
2018-01-20T02:49:17.934Z,16.55
2018-01-20T02:51:46.147Z,17.40
2018-01-20T02:54:13.641Z,16.35
2018-01-20T02:56:41.104Z,17.67
2018-01-20T02:59:08.591Z,17.12
2018-01-20T03:01:36.847Z,18.92
2018-01-20T03:04:05.080Z,18.83
2018-01-20T03:06:32.569Z,16.60
2018-01-20T03:09:00.048Z,16.77
2018-01-20T03:11:27.528Z,16.15
2018-01-20T03:13:55.809Z,16.50
2018-01-20T03:16:24.065Z,17.20
2018-01-20T03:18:52.327Z,15.98
2018-01-20T03:21:20.552Z,15.52
2018-01-20T03:23:48.027Z,16.00
2018-01-20T03:26:16.256Z,14.57
2018-01-20T03:28:43.828Z,14.57
2018-01-20T03:31:12.068Z,14.65
2018-01-20T03:33:39.620Z,16.10
2018-01-20T03:36:07.888Z,16.95
2018-01-20T03:38:36.116Z,16.05
2018-01-20T03:41:03.692Z,16.20
2018-01-20T03:43:31.919Z,17.40
2018-01-20T03:45:59.607Z,16.25
2018-01-20T03:48:27.848Z,16.65
2018-01-20T03:50:56.092Z,17.00
2018-01-20T03:53:23.596Z,18.40
2018-01-20T03:55:51.111Z,18.75
2018-01-20T03:58:19.349Z,18.98
2018-01-20T04:00:46.838Z,19.45
2018-01-20T04:03:14.310Z,19.23
2018-01-20T04:05:41.775Z,18.95
2018-01-20T04:08:09.274Z,19.48
2018-01-20T04:10:36.772Z,19.48
2018-01-20T04:13:05.003Z,19.13
2018-01-20T04:15:32.572Z,19.35
2018-01-20T04:18:00.836Z,18.00
2018-01-20T04:20:29.073Z,19.13
2018-01-20T04:22:56.538Z,18.65
2018-01-20T04:25:24.997Z,18.23
2018-01-20T04:27:53.264Z,19.45
2018-01-20T04:30:21.483Z,19.02
2018-01-20T04:32:48.960Z,18.83
2018-01-20T04:35:17.222Z,18.85
2018-01-20T04:37:45.443Z,20.07
2018-01-20T04:40:12.920Z,19.55
2018-01-20T04:42:41.160Z,20.40
2018-01-20T04:45:08.628Z,20.80
2018-01-20T04:47:36.117Z,20.90
2018-01-20T04:50:03.625Z,20.88
2018-01-20T04:52:31.252Z,23.48
2018-01-20T04:54:59.620Z,22.87
2018-01-20T04:57:27.861Z,22.90
2018-01-20T04:59:55.324Z,24.55
2018-01-20T05:02:23.680Z,24.65
2018-01-20T05:04:51.944Z,25.33
2018-01-20T05:07:20.216Z,27.48
2018-01-20T05:09:47.688Z,27.83
2018-01-20T05:12:15.189Z,28.55
2018-01-20T05:14:43.447Z,29.27
2018-01-20T05:17:11.708Z,28.50
2018-01-20T05:19:39.971Z,29.45
2018-01-20T05:22:08.212Z,29.92
2018-01-20T05:24:35.688Z,30.10
2018-01-20T05:27:03.208Z,29.42
2018-01-20T05:29:31.479Z,30.40
2018-01-20T05:31:59.836Z,29.75
2018-01-20T05:34:28.078Z,31.35
2018-01-20T05:36:55.628Z,28.30
2018-01-20T05:39:23.096Z,31.92
2018-01-20T05:41:50.573Z,28.95
2018-01-20T05:44:18.036Z,30.00
2018-01-20T05:46:45.533Z,30.77
2018-01-20T05:49:13.768Z,28.20
2018-01-20T05:51:41.232Z,26.67
2018-01-20T05:54:09.484Z,28.87
2018-01-20T05:56:36.960Z,27.98
2018-01-20T05:59:04.416Z,27.57
2018-01-20T06:01:32.132Z,26.87
2018-01-20T06:04:00.389Z,26.73
2018-01-20T06:06:28.614Z,26.50
2018-01-20T06:08:56.124Z,24.55
2018-01-20T06:11:23.599Z,24.92
2018-01-20T06:13:51.059Z,24.90
2018-01-20T06:16:18.616Z,22.98
2018-01-20T06:18:46.877Z,22.00
2018-01-20T06:21:15.130Z,22.73
2018-01-20T06:23:42.592Z,23.65
2018-01-20T06:26:10.120Z,21.95
2018-01-20T06:28:38.368Z,22.55
2018-01-20T06:31:05.920Z,22.48
2018-01-20T06:33:34.183Z,22.52
2018-01-20T06:36:02.449Z,23.10
2018-01-20T06:38:30.712Z,24.30
2018-01-20T06:40:58.976Z,23.90
2018-01-20T06:43:27.234Z,25.35
2018-01-20T06:45:55.475Z,26.55
2018-01-20T06:48:23.039Z,26.05
2018-01-20T06:50:51.296Z,28.00
2018-01-20T06:53:19.523Z,29.40
2018-01-20T06:55:47.144Z,28.17
2018-01-20T06:58:14.640Z,28.60
2018-01-20T07:00:42.879Z,28.10
2018-01-20T07:03:10.453Z,27.30
2018-01-20T07:05:38.688Z,29.27
2018-01-20T07:08:06.243Z,28.25
2018-01-20T07:10:34.480Z,28.40
2018-01-20T07:13:01.965Z,31.17
2018-01-20T07:15:29.688Z,30.70
2018-01-20T07:17:57.176Z,28.73
2018-01-20T07:20:24.628Z,30.20
2018-01-20T07:22:52.192Z,31.02
2018-01-20T07:25:20.698Z,29.90
2018-01-20T07:27:48.164Z,30.65
2018-01-20T07:30:15.639Z,29.75
2018-01-20T07:32:44.007Z,32.13
2018-01-20T07:35:12.241Z,28.85
2018-01-20T07:37:39.816Z,29.17
2018-01-20T07:40:11.916Z,28.15
2018-01-20T07:42:39.390Z,26.73
2018-01-20T07:45:06.946Z,27.60
2018-01-20T07:47:35.186Z,27.70
2018-01-20T07:50:02.752Z,25.70
2018-01-20T07:52:30.985Z,26.67
2018-01-20T07:54:58.457Z,27.00
2018-01-20T07:57:27.464Z,26.30
2018-01-20T07:59:54.938Z,25.70
2018-01-20T08:02:22.512Z,25.83
2018-01-20T08:04:50.794Z,23.27
2018-01-20T08:07:18.260Z,22.13
2018-01-20T08:09:45.759Z,22.23
2018-01-20T08:12:14.018Z,22.40
2018-01-20T08:14:42.277Z,19.42
2018-01-20T08:17:10.546Z,18.60
2018-01-20T08:19:38.800Z,18.60
2018-01-20T08:22:07.040Z,18.87
2018-01-20T08:24:34.514Z,18.80
2018-01-20T08:27:02.044Z,18.83
2018-01-20T08:29:30.276Z,16.92
2018-01-20T08:31:57.780Z,18.47
2018-01-20T08:34:25.300Z,18.00
2018-01-20T08:36:53.532Z,17.35
2018-01-20T08:39:21.100Z,16.20
2018-01-20T08:41:49.358Z,16.60
2018-01-20T08:44:17.612Z,16.17
2018-01-20T08:46:45.850Z,17.30
2018-01-20T08:49:13.570Z,16.35
2018-01-20T08:51:41.076Z,15.88
2018-01-20T08:54:08.549Z,16.67
2018-01-20T08:56:36.024Z,14.02
2018-01-20T08:59:03.604Z,15.40
2018-01-20T09:01:31.846Z,14.10
2018-01-20T09:04:00.080Z,13.62
2018-01-20T09:06:27.562Z,13.88
2018-01-20T09:08:55.812Z,13.38
2018-01-20T09:11:24.080Z,13.30
2018-01-20T09:13:52.325Z,12.32
2018-01-20T09:16:19.817Z,12.68
2018-01-20T09:18:47.312Z,13.00
2018-01-20T09:21:15.546Z,13.77
2018-01-20T09:23:43.118Z,12.88
2018-01-20T09:26:11.384Z,12.45
2018-01-20T09:28:39.744Z,13.80
2018-01-20T09:31:07.972Z,12.93
2018-01-20T09:33:35.436Z,12.32
2018-01-20T09:36:03.692Z,11.95
2018-01-20T09:38:31.172Z,12.70
2018-01-20T09:40:58.644Z,10.30
2018-01-20T09:43:26.108Z,10.73
2018-01-20T09:45:53.572Z,10.20
2018-01-20T09:48:21.844Z,10.00
2018-01-20T09:50:50.141Z,9.07
2018-01-20T09:53:17.607Z,9.32
2018-01-20T09:55:45.284Z,9.43
2018-01-20T09:58:13.520Z,9.40
2018-01-20T10:00:41.000Z,9.65
2018-01-20T10:03:08.462Z,9.00
2018-01-20T10:05:35.964Z,8.65
2018-01-20T10:08:04.220Z,8.63
2018-01-20T10:10:31.689Z,7.70
2018-01-20T10:12:59.202Z,7.25
2018-01-20T10:15:26.668Z,7.70
2018-01-20T10:17:54.196Z,8.10
2018-01-20T10:20:22.463Z,7.70
2018-01-20T10:22:50.729Z,7.90
2018-01-20T10:25:18.976Z,7.07
2018-01-20T10:27:47.207Z,8.23
2018-01-20T10:30:14.707Z,6.90
2018-01-20T10:32:42.224Z,7.40
2018-01-20T10:35:10.462Z,7.20
2018-01-20T10:37:37.924Z,7.25
2018-01-20T10:40:06.293Z,7.18
2018-01-20T10:42:34.512Z,7.30
2018-01-20T10:45:01.989Z,7.32
2018-01-20T10:47:30.276Z,7.20
2018-01-20T10:49:57.842Z,7.20
2018-01-20T10:52:25.316Z,7.15
2018-01-20T10:54:53.465Z,7.15
2018-01-20T10:57:20.930Z,5.97
2018-01-20T10:59:49.197Z,6.10
2018-01-20T11:02:17.448Z,6.65
2018-01-20T11:04:44.917Z,7.03
2018-01-20T11:07:12.376Z,6.53
2018-01-20T11:09:39.848Z,6.10
2018-01-20T11:12:07.329Z,6.80
2018-01-20T11:14:35.584Z,6.80
2018-01-20T11:17:03.820Z,6.60
2018-01-20T11:19:31.297Z,6.28
2018-01-20T11:21:59.538Z,6.22
2018-01-20T11:24:27.001Z,6.20
2018-01-20T11:26:54.464Z,6.17
2018-01-20T11:29:21.949Z,6.20
2018-01-20T11:31:49.524Z,6.20
2018-01-20T11:34:17.772Z,5.85
2018-01-20T11:36:46.011Z,6.30
2018-01-20T11:39:13.572Z,5.90
2018-01-20T11:41:41.812Z,6.10
2018-01-20T11:44:09.271Z,5.82
2018-01-20T11:46:37.540Z,7.65
2018-01-20T11:49:05.804Z,6.87
2018-01-20T11:51:34.033Z,6.53
2018-01-20T11:54:01.596Z,6.10
2018-01-20T11:56:29.853Z,5.62
2018-01-20T11:58:57.408Z,5.90
2018-01-20T12:01:24.889Z,5.40
2018-01-20T12:03:52.360Z,5.83
2018-01-20T12:06:19.938Z,6.00
2018-01-20T12:08:48.171Z,5.57
2018-01-20T12:11:15.645Z,5.40
2018-01-20T12:13:44.096Z,6.30
2018-01-20T12:16:12.325Z,6.43
2018-01-20T12:18:39.902Z,6.20
2018-01-20T12:21:07.364Z,5.30
2018-01-20T12:23:34.832Z,5.10
2018-01-20T12:26:02.422Z,5.35
2018-01-20T12:28:29.881Z,5.50
2018-01-20T12:30:58.116Z,5.87
2018-01-20T12:33:25.593Z,6.00
2018-01-20T12:35:53.054Z,5.97
2018-01-20T12:38:20.519Z,6.30
2018-01-20T12:40:48.014Z,6.53
2018-01-20T12:43:16.272Z,5.50
2018-01-20T12:45:44.502Z,5.75
2018-01-20T12:48:11.978Z,6.00
2018-01-20T12:50:39.443Z,5.97
2018-01-20T12:53:06.947Z,7.10
2018-01-20T12:55:35.188Z,6.17
2018-01-20T12:58:02.744Z,6.28
2018-01-20T13:00:30.989Z,5.72
2018-01-20T13:02:59.639Z,6.03
2018-01-20T13:05:27.115Z,6.50
2018-01-20T13:07:54.660Z,4.75
2018-01-20T13:10:22.924Z,5.10
2018-01-20T13:12:51.292Z,5.05
2018-01-20T13:15:19.656Z,5.57
2018-01-20T13:17:48.265Z,5.00
2018-01-20T13:26:01.597Z,5.00
2018-01-20T13:28:29.063Z,5.37
2018-01-20T13:30:56.529Z,5.47
2018-01-20T13:33:24.071Z,5.85
2018-01-20T13:35:52.316Z,5.32
2018-01-20T13:38:20.592Z,6.15
2018-01-20T13:40:48.134Z,6.50
2018-01-20T13:43:16.388Z,8.25
2018-01-20T13:45:44.620Z,6.70
2018-01-20T13:48:12.095Z,12.45
2018-01-20T13:50:40.552Z,10.80
2018-01-20T13:53:08.808Z,7.28
2018-01-20T13:55:37.117Z,6.50
2018-01-20T13:58:04.592Z,11.02
2018-01-20T14:00:32.158Z,7.25
2018-01-20T14:03:00.629Z,6.25
2018-01-20T14:05:28.873Z,6.70
2018-01-20T14:07:56.348Z,6.90
2018-01-20T14:10:23.816Z,7.50
2018-01-20T14:12:51.320Z,15.60
2018-01-20T14:15:19.543Z,8.00
2018-01-20T14:17:47.022Z,15.00
2018-01-20T14:20:15.372Z,9.50
2018-01-20T14:22:43.604Z,9.70
2018-01-20T14:25:11.068Z,7.90
2018-01-20T14:27:39.320Z,8.90
2018-01-20T14:30:06.889Z,7.97
2018-01-20T14:32:35.146Z,8.77
2018-01-20T14:35:03.384Z,7.55
2018-01-20T14:37:31.016Z,7.57
2018-01-20T14:39:59.993Z,6.65
2018-01-20T14:42:27.465Z,6.25
2018-01-20T14:44:55.725Z,5.78
2018-01-20T14:47:23.994Z,8.07
2018-01-20T14:49:52.216Z,5.70
2018-01-20T14:52:19.692Z,5.75
2018-01-20T14:54:47.916Z,6.10
2018-01-20T14:57:15.485Z,6.55
2018-01-20T14:59:43.752Z,9.80
2018-01-20T15:02:11.975Z,8.40
2018-01-20T15:04:39.549Z,7.20
2018-01-20T15:07:07.778Z,8.35
2018-01-20T15:09:35.258Z,9.13
2018-01-20T15:12:03.521Z,7.90
2018-01-20T15:14:31.764Z,8.60
2018-01-20T15:16:59.319Z,9.10
2018-01-20T15:19:27.552Z,10.00
2018-01-20T15:21:55.023Z,9.07
2018-01-20T15:24:23.255Z,8.87
2018-01-20T15:26:50.826Z,13.88
2018-01-20T15:29:19.060Z,11.43
2018-01-20T15:31:46.520Z,9.80
2018-01-20T15:34:14.769Z,9.73
2018-01-20T15:36:42.232Z,8.30
2018-01-20T15:39:10.495Z,7.30
2018-01-20T15:41:38.757Z,7.00
2018-01-20T15:44:06.980Z,7.50
2018-01-20T15:46:34.449Z,7.10
2018-01-20T15:49:02.679Z,6.90
2018-01-20T15:51:30.164Z,7.00
2018-01-20T15:53:57.645Z,9.23
2018-01-20T15:56:25.128Z,21.80
2018-01-20T15:58:53.405Z,16.10
2018-01-20T16:01:20.949Z,15.18
2018-01-20T16:03:49.173Z,17.25
2018-01-20T16:06:16.841Z,8.52
2018-01-20T16:08:45.070Z,9.68
2018-01-20T16:11:12.528Z,8.38
2018-01-20T16:13:40.084Z,9.23
2018-01-20T16:16:08.349Z,10.50
2018-01-20T16:18:36.861Z,8.70
2018-01-20T16:21:05.084Z,9.80
2018-01-20T16:23:32.571Z,10.35
2018-01-20T16:26:00.061Z,9.82
2018-01-20T16:28:28.310Z,9.73
2018-01-20T16:30:55.785Z,8.10
2018-01-20T16:33:23.310Z,8.88
2018-01-20T16:35:50.857Z,8.70
2018-01-20T16:38:18.328Z,9.55
2018-01-20T16:40:45.831Z,9.35
2018-01-20T16:43:14.105Z,13.20
2018-01-20T16:45:41.584Z,11.20
2018-01-20T16:48:09.068Z,11.70
2018-01-20T16:50:37.309Z,9.98
2018-01-20T16:53:04.788Z,10.50
2018-01-20T16:55:32.299Z,11.40
2018-01-20T16:58:01.303Z,11.50
2018-01-20T17:00:29.528Z,13.00
2018-01-20T17:02:57.096Z,14.95
2018-01-20T17:05:25.364Z,16.98
2018-01-20T17:07:53.600Z,13.27
2018-01-20T17:10:21.106Z,10.82
2018-01-20T17:12:48.616Z,11.25
2018-01-20T17:15:16.864Z,10.77
2018-01-20T17:17:45.123Z,10.77
2018-01-20T17:20:12.612Z,10.52
2018-01-20T17:22:40.115Z,11.23
2018-01-20T17:25:08.384Z,10.50
2018-01-20T17:27:35.927Z,11.25
2018-01-20T17:30:04.294Z,12.68
2018-01-20T17:32:31.770Z,12.85
2018-01-20T17:34:59.269Z,12.82
2018-01-20T17:40:18.083Z,12.75
2018-01-20T17:42:45.648Z,13.70
2018-01-20T17:45:13.891Z,13.23
2018-01-20T17:47:41.379Z,14.55
2018-01-20T17:50:08.988Z,14.00
2018-01-20T17:52:37.273Z,14.03
2018-01-20T17:55:04.909Z,14.20
2018-01-20T17:57:33.141Z,14.45
2018-01-20T18:00:00.629Z,14.15
2018-01-20T18:02:28.116Z,16.90
2018-01-20T18:04:55.592Z,15.27
2018-01-20T18:07:23.844Z,14.38
2018-01-20T18:09:51.304Z,15.02
2018-01-20T18:12:18.878Z,13.00
2018-01-20T18:14:46.384Z,14.60
2018-01-20T18:17:14.641Z,16.62
2018-01-20T18:19:42.874Z,18.62
2018-01-20T18:22:10.443Z,20.40
2018-01-20T18:24:38.683Z,21.00
2018-01-20T18:27:06.145Z,18.55
2018-01-20T18:29:34.410Z,19.20
2018-01-20T18:32:02.668Z,17.83
2018-01-20T18:34:30.915Z,16.30
2018-01-20T18:36:59.160Z,17.12
2018-01-20T18:39:26.732Z,17.02
2018-01-20T18:41:54.964Z,17.60
2018-01-20T18:44:22.446Z,17.40
2018-01-20T18:46:49.967Z,16.17
2018-01-20T18:49:18.227Z,15.85
2018-01-20T18:51:46.460Z,15.10
2018-01-20T18:54:14.045Z,16.67
2018-01-20T18:56:42.284Z,16.37
2018-01-20T18:59:10.527Z,16.85
2018-01-20T19:01:38.016Z,16.50
2018-01-20T19:04:05.482Z,17.73
2018-01-20T19:06:32.952Z,16.33
2018-01-20T19:09:01.244Z,16.07
2018-01-20T19:11:29.476Z,17.23
2018-01-20T19:13:56.953Z,17.95
2018-01-20T19:16:25.200Z,21.02
2018-01-20T19:18:53.440Z,20.10
2018-01-20T19:21:20.920Z,33.53
2018-01-20T19:23:48.460Z,22.67
2018-01-20T19:26:15.995Z,37.15
2018-01-20T19:28:44.356Z,33.58
2018-01-20T19:31:12.614Z,26.20
2018-01-20T19:33:40.061Z,23.85
2018-01-20T19:36:08.312Z,30.48
2018-01-20T19:38:36.540Z,30.63
2018-01-20T19:41:04.009Z,20.62
2018-01-20T19:43:32.263Z,22.70
2018-01-20T19:45:59.728Z,15.90
2018-01-20T19:48:27.980Z,16.90
2018-01-20T19:50:56.252Z,21.58
2018-01-20T19:53:24.500Z,19.23
2018-01-20T19:55:52.736Z,18.15
2018-01-20T19:58:20.309Z,22.87
2018-01-20T20:00:48.564Z,22.10
2018-01-20T20:03:16.804Z,24.70
2018-01-20T20:05:44.287Z,28.60
2018-01-20T20:08:11.807Z,19.20
2018-01-20T20:10:40.075Z,18.25
2018-01-20T20:13:08.540Z,16.90
2018-01-20T20:15:36.070Z,19.00
2018-01-20T20:18:04.374Z,19.85
2018-01-20T20:20:31.824Z,16.08
2018-01-20T20:22:59.321Z,15.50
2018-01-20T20:25:27.593Z,16.05
2018-01-20T20:27:55.842Z,16.10
2018-01-20T20:30:24.219Z,17.23
2018-01-20T20:32:51.689Z,16.10
2018-01-20T20:35:19.191Z,17.10
2018-01-20T20:37:47.657Z,16.00
2018-01-20T20:40:15.927Z,15.70
2018-01-20T20:42:43.407Z,17.65
2018-01-20T20:45:10.900Z,18.58
2018-01-20T20:47:39.160Z,17.73
2018-01-20T20:50:07.407Z,16.92
2018-01-20T20:52:34.971Z,16.87
2018-01-20T20:55:02.458Z,14.95
2018-01-20T20:57:30.052Z,17.02
2018-01-20T20:59:58.344Z,16.70
2018-01-20T21:02:25.852Z,16.67
2018-01-20T21:04:54.216Z,15.15
2018-01-20T21:07:22.457Z,14.95
2018-01-20T21:09:49.936Z,15.32
2018-01-20T21:12:17.420Z,14.90
2018-01-20T21:14:45.100Z,16.92
2018-01-20T21:17:13.471Z,15.75
2018-01-20T21:19:41.825Z,17.83
2018-01-20T21:22:10.293Z,18.95
2018-01-20T21:24:38.539Z,17.20
2018-01-20T21:27:06.108Z,16.92
2018-01-20T21:29:33.648Z,17.70
2018-01-20T21:32:01.924Z,16.80
2018-01-20T21:34:29.452Z,16.87
2018-01-20T21:36:57.693Z,19.35
2018-01-20T21:39:25.247Z,19.27
2018-01-20T21:41:53.529Z,20.15
2018-01-20T21:44:21.068Z,18.92
2018-01-20T21:46:48.645Z,17.85
2018-01-20T21:49:16.118Z,17.23
2018-01-20T21:51:43.592Z,17.77
2018-01-20T21:54:11.851Z,18.25
2018-01-20T21:56:40.116Z,18.65
2018-01-20T21:59:07.650Z,18.52
2018-01-20T22:01:35.896Z,17.70
2018-01-20T22:04:03.562Z,16.75
2018-01-20T22:06:31.801Z,17.40
2018-01-20T22:08:59.301Z,18.92
2018-01-20T22:11:26.908Z,19.80
2018-01-20T22:13:55.156Z,18.05
2018-01-20T22:16:23.427Z,19.12
2018-01-20T22:18:51.678Z,16.42
2018-01-20T22:21:19.941Z,17.02
2018-01-20T22:23:48.200Z,16.30
2018-01-20T22:26:16.472Z,16.90
2018-01-20T22:28:43.946Z,16.17
2018-01-20T22:31:11.427Z,15.00
2018-01-20T22:33:38.896Z,14.77
2018-01-20T22:36:07.143Z,14.30
2018-01-20T22:38:35.417Z,15.00
2018-01-20T22:41:03.888Z,16.00
2018-01-20T22:43:32.205Z,15.38
2018-01-20T22:45:59.684Z,16.25
2018-01-20T22:48:27.940Z,16.95
2018-01-20T22:50:56.204Z,17.87
2018-01-20T22:53:24.464Z,16.43
2018-01-20T22:55:52.724Z,16.08
2018-01-20T22:58:20.972Z,16.92
2018-01-20T23:00:49.436Z,15.75
2018-01-20T23:03:17.791Z,15.23
2018-01-20T23:05:45.355Z,16.52
2018-01-20T23:08:13.714Z,16.25
2018-01-20T23:10:41.197Z,17.70
2018-01-20T23:13:08.704Z,18.75
2018-01-20T23:15:36.959Z,18.77
2018-01-20T23:18:05.192Z,18.60
2018-01-20T23:20:32.683Z,19.05
2018-01-20T23:23:00.182Z,20.25
2018-01-20T23:25:27.648Z,21.17
2018-01-20T23:27:55.916Z,19.40
2018-01-20T23:30:24.176Z,21.25
2018-01-20T23:32:51.644Z,21.45
2018-01-20T23:35:19.154Z,22.40
2018-01-20T23:37:47.425Z,23.40
2018-01-20T23:40:14.900Z,23.12
2018-01-20T23:42:42.401Z,24.85
2018-01-20T23:45:09.943Z,24.60
2018-01-20T23:47:38.210Z,24.80
2018-01-20T23:50:06.456Z,23.15
2018-01-20T23:52:34.915Z,24.90
2018-01-20T23:55:03.144Z,25.60
2018-01-20T23:57:30.679Z,28.85
2018-01-20T23:59:58.160Z,26.42
